MiSS Peggy Ann — WDD9336 — position and weather

sailwx.info

Track history (hours):
 
Tides and Currents Weather Stations Pressure Air Temp Water Temp Dewpoint Dewpoint Depression Visibility Wind Speed Wind Dir Waves Ship Positions

MiSS Peggy Ann

Owner: Rodi Marine LLC, Lafayette, LA. More information available from US FCC via Universal Licensing System and Coast Guard Vessel Documentation Center.

Last reported at 2017-Oct-17 08:15 UTC. Time now 2017-Oct-19 01:40 UTC.
Position N 29°43' W 092°15'.

; draft 2.2 m.

Type: Passenger vessel. MMSI: 367309990.

Date/timePositionNaut miles runAvg speedWind from/ knotsBaromVisibWave heightAir tempDewpointWater temp
2017-Oct-17 08:15N 29°43' W 092°15'519.0
2017-Oct-17 08:00N 29°46' W 092°11'1 2.0
2017-Oct-17 07:30N 29°47' W 092°10'0 0.0
2017-Oct-17 07:00N 29°47' W 092°10'0 0.0
2017-Oct-17 06:30N 29°47' W 092°10'0 0.0
2017-Oct-17 06:00N 29°47' W 092°10'0 0.0
2017-Oct-17 05:31N 29°47' W 092°10'0 0.0
2017-Oct-17 05:01N 29°47' W 092°10'0 0.0
2017-Oct-17 04:30N 29°47' W 092°10'0 0.0
2017-Oct-17 04:01N 29°47' W 092°10'0 0.0
2017-Oct-17 03:31N 29°47' W 092°10'0 0.0
2017-Oct-17 03:00N 29°47' W 092°10'0 0.0
2017-Oct-17 02:31N 29°47' W 092°10'0 0.0
2017-Oct-17 02:01N 29°47' W 092°10'0 0.0
2017-Oct-17 01:31N 29°47' W 092°10'0 0.0
2017-Oct-17 01:01N 29°47' W 092°10'0 0.0
2017-Oct-17 00:30N 29°47' W 092°10'0 0.0
2017-Oct-17 00:01N 29°47' W 092°10'0 0.0
2017-Oct-16 23:30N 29°47' W 092°10'0 0.0
2017-Oct-16 23:01N 29°47' W 092°10'0 0.0
2017-Oct-16 22:31N 29°47' W 092°10'0 0.0
2017-Oct-16 22:01N 29°47' W 092°10'0 0.0
2017-Oct-16 21:31N 29°47' W 092°10'0 0.0
2017-Oct-16 21:01N 29°47' W 092°10'0 0.0
2017-Oct-16 20:31N 29°47' W 092°10'0 0.0
2017-Oct-16 20:00N 29°47' W 092°10'0 0.0
2017-Oct-16 19:31N 29°47' W 092°10'0 0.0
2017-Oct-16 19:01N 29°47' W 092°10'0 0.0
2017-Oct-16 18:31N 29°47' W 092°10'1 2.3
2017-Oct-16 18:01N 29°47' W 092°11'0 0.0
2017-Oct-16 17:31N 29°47' W 092°11'0 0.9
2017-Oct-16 17:01N 29°47' W 092°11'  
2017-Oct-13 06:58N 29°43' W 092°15'5 9.7
2017-Oct-13 06:30N 29°47' W 092°11'0 0.2
2017-Oct-13 06:00N 29°47' W 092°11'0 0.0
2017-Oct-13 05:30N 29°47' W 092°11'0 0.0
2017-Oct-13 05:00N 29°47' W 092°11'0 0.0
2017-Oct-13 04:30N 29°47' W 092°11'0 0.0
2017-Oct-13 04:00N 29°47' W 092°11'0 0.0
2017-Oct-13 03:30N 29°47' W 092°11'0 0.0
2017-Oct-13 03:01N 29°47' W 092°11'0 0.0
2017-Oct-13 02:30N 29°47' W 092°11'0 0.0
2017-Oct-13 02:01N 29°47' W 092°11'0 0.0
2017-Oct-13 01:31N 29°47' W 092°11'0 0.0
2017-Oct-13 01:01N 29°47' W 092°11'4 7.4
2017-Oct-13 00:31N 29°44' W 092°14'  
2017-Oct-08 08:52N 29°44' W 092°14'411.8
2017-Oct-08 08:30N 29°47' W 092°11'0 0.0
2017-Oct-08 05:23N 29°47' W 092°11'0 0.0
2017-Oct-08 05:00N 29°47' W 092°11'0 0.0
2017-Oct-08 04:31N 29°47' W 092°11'0 0.0
2017-Oct-08 04:00N 29°47' W 092°11'0 0.0
2017-Oct-08 03:30N 29°47' W 092°11'0 0.0
2017-Oct-08 03:01N 29°47' W 092°11'0 0.0
2017-Oct-08 02:30N 29°47' W 092°11'2 4.9
2017-Oct-08 02:00N 29°45' W 092°13'  
Track history (hours):
 
Tides and Currents Weather Stations Pressure Air Temp Water Temp Dewpoint Dewpoint Depression Visibility Wind Speed Wind Dir Waves Ship Positions

MiSS Peggy Ann

Owner: Rodi Marine LLC, Lafayette, LA. More information available from US FCC via Universal Licensing System and Coast Guard Vessel Documentation Center.

Last reported at 2017-Oct-17 08:15 UTC. Time now 2017-Oct-19 01:40 UTC.
Position N 29°43' W 092°15'.

; draft 2.2 m.

Type: Passenger vessel. MMSI: 367309990.

Date/timePositionNaut miles runAvg speedWind from/ knotsBaromVisibWave heightAir tempDewpointWater temp
2017-Oct-17 08:15N 29°43' W 092°15'519.0
2017-Oct-17 08:00N 29°46' W 092°11'1 2.0
2017-Oct-17 07:30N 29°47' W 092°10'0 0.0
2017-Oct-17 07:00N 29°47' W 092°10'0 0.0
2017-Oct-17 06:30N 29°47' W 092°10'0 0.0
2017-Oct-17 06:00N 29°47' W 092°10'0 0.0
2017-Oct-17 05:31N 29°47' W 092°10'0 0.0
2017-Oct-17 05:01N 29°47' W 092°10'0 0.0
2017-Oct-17 04:30N 29°47' W 092°10'0 0.0
2017-Oct-17 04:01N 29°47' W 092°10'0 0.0
2017-Oct-17 03:31N 29°47' W 092°10'0 0.0
2017-Oct-17 03:00N 29°47' W 092°10'0 0.0
2017-Oct-17 02:31N 29°47' W 092°10'0 0.0
2017-Oct-17 02:01N 29°47' W 092°10'0 0.0
2017-Oct-17 01:31N 29°47' W 092°10'0 0.0
2017-Oct-17 01:01N 29°47' W 092°10'0 0.0
2017-Oct-17 00:30N 29°47' W 092°10'0 0.0
2017-Oct-17 00:01N 29°47' W 092°10'0 0.0
2017-Oct-16 23:30N 29°47' W 092°10'0 0.0
2017-Oct-16 23:01N 29°47' W 092°10'0 0.0
2017-Oct-16 22:31N 29°47' W 092°10'0 0.0
2017-Oct-16 22:01N 29°47' W 092°10'0 0.0
2017-Oct-16 21:31N 29°47' W 092°10'0 0.0
2017-Oct-16 21:01N 29°47' W 092°10'0 0.0
2017-Oct-16 20:31N 29°47' W 092°10'0 0.0
2017-Oct-16 20:00N 29°47' W 092°10'0 0.0
2017-Oct-16 19:31N 29°47' W 092°10'0 0.0
2017-Oct-16 19:01N 29°47' W 092°10'0 0.0
2017-Oct-16 18:31N 29°47' W 092°10'1 2.3
2017-Oct-16 18:01N 29°47' W 092°11'0 0.0
2017-Oct-16 17:31N 29°47' W 092°11'0 0.9
2017-Oct-16 17:01N 29°47' W 092°11'  
2017-Oct-13 06:58N 29°43' W 092°15'5 9.7
2017-Oct-13 06:30N 29°47' W 092°11'0 0.2
2017-Oct-13 06:00N 29°47' W 092°11'0 0.0
2017-Oct-13 05:30N 29°47' W 092°11'0 0.0
2017-Oct-13 05:00N 29°47' W 092°11'0 0.0
2017-Oct-13 04:30N 29°47' W 092°11'0 0.0
2017-Oct-13 04:00N 29°47' W 092°11'0 0.0
2017-Oct-13 03:30N 29°47' W 092°11'0 0.0
2017-Oct-13 03:01N 29°47' W 092°11'0 0.0
2017-Oct-13 02:30N 29°47' W 092°11'0 0.0
2017-Oct-13 02:01N 29°47' W 092°11'0 0.0
2017-Oct-13 01:31N 29°47' W 092°11'0 0.0
2017-Oct-13 01:01N 29°47' W 092°11'4 7.4
2017-Oct-13 00:31N 29°44' W 092°14'  
2017-Oct-08 08:52N 29°44' W 092°14'411.8
2017-Oct-08 08:30N 29°47' W 092°11'0 0.0
2017-Oct-08 05:23N 29°47' W 092°11'0 0.0
2017-Oct-08 05:00N 29°47' W 092°11'0 0.0
2017-Oct-08 04:31N 29°47' W 092°11'0 0.0
2017-Oct-08 04:00N 29°47' W 092°11'0 0.0
2017-Oct-08 03:30N 29°47' W 092°11'0 0.0
2017-Oct-08 03:01N 29°47' W 092°11'0 0.0
2017-Oct-08 02:30N 29°47' W 092°11'2 4.9
2017-Oct-08 02:00N 29°45' W 092°13'  

Dump ship's entire track history